createdAt,value
2023-01-15T00:03:42.100Z,96850.69
2023-01-15T00:08:45.329Z,96849.66
2023-01-15T00:13:48.353Z,96842.19
2023-01-15T00:18:53.544Z,96855.72
2023-01-15T00:24:14.296Z,96858.19
2023-01-15T00:29:17.583Z,96854.00
2023-01-15T00:34:21.845Z,96854.94
2023-01-15T00:39:25.152Z,96885.59
2023-01-15T00:44:28.336Z,96895.47
2023-01-15T00:49:32.403Z,96905.78
2023-01-15T00:54:35.308Z,96909.66
2023-01-15T00:59:38.443Z,96905.75
2023-01-15T01:11:07.504Z,96918.47
2023-01-15T01:36:26.993Z,96977.25
2023-01-15T01:41:30.507Z,96980.09
2023-01-15T01:46:35.446Z,96989.28
2023-01-15T01:51:44.419Z,97003.16
2023-01-15T01:56:49.661Z,97008.28
2023-01-15T02:01:53.919Z,97003.00
2023-01-15T02:06:59.811Z,97019.38
2023-01-15T02:12:07.528Z,97007.75
2023-01-15T02:17:16.462Z,97016.34
2023-01-15T02:22:30.591Z,97000.56
2023-01-15T02:27:35.702Z,96997.69
2023-01-15T02:32:45.092Z,97004.84
2023-01-15T02:37:52.755Z,96995.34
2023-01-15T02:43:00.316Z,96996.69
2023-01-15T02:48:07.106Z,96999.84
2023-01-15T02:53:15.232Z,96985.25
2023-01-15T02:58:25.864Z,96989.94
2023-01-15T03:03:38.908Z,96996.28
2023-01-15T03:08:41.969Z,97007.94
2023-01-15T03:13:52.818Z,97005.69
2023-01-15T03:19:03.366Z,97011.38
2023-01-15T03:24:11.643Z,96992.06
2023-01-15T03:29:16.203Z,97000.94
2023-01-15T03:34:19.450Z,97009.81
2023-01-15T03:39:23.575Z,97013.06
2023-01-15T03:44:40.303Z,97020.59
2023-01-15T03:49:52.765Z,97020.59
2023-01-15T03:55:12.701Z,97020.72
2023-01-15T04:00:23.670Z,97026.13
2023-01-15T04:05:32.513Z,97032.13
2023-01-15T04:10:35.523Z,97031.16
2023-01-15T04:15:41.888Z,97029.53
2023-01-15T04:20:44.966Z,97039.69
2023-01-15T04:25:48.874Z,97040.69
2023-01-15T04:30:53.171Z,97046.22
2023-01-15T04:35:56.064Z,97054.28
2023-01-15T04:41:20.444Z,97041.69
2023-01-15T04:46:25.834Z,97057.75
2023-01-15T04:51:28.980Z,97052.00
2023-01-15T04:56:31.831Z,97053.47
2023-01-15T05:01:36.422Z,97056.00
2023-01-15T05:06:39.320Z,97049.41
2023-01-15T05:11:42.417Z,97051.59
2023-01-15T05:16:46.588Z,97048.09
2023-01-15T05:21:49.414Z,97051.44
2023-01-15T05:26:52.194Z,97057.81
2023-01-15T05:31:56.292Z,97053.25
2023-01-15T05:36:59.008Z,97050.16
2023-01-15T05:42:02.302Z,97039.13
2023-01-15T05:47:07.761Z,97051.44
2023-01-15T05:52:10.492Z,97049.28
2023-01-15T05:57:14.553Z,97058.75
2023-01-15T06:02:24.171Z,97061.88
2023-01-15T06:07:27.056Z,97066.19
2023-01-15T06:12:29.838Z,97071.09
2023-01-15T06:17:34.590Z,97069.63
2023-01-15T06:22:38.865Z,97072.03
2023-01-15T06:27:44.480Z,97072.75
2023-01-15T06:32:48.620Z,97085.22
2023-01-15T06:37:51.731Z,97087.59
2023-01-15T06:43:12.418Z,97102.94
2023-01-15T06:48:16.522Z,97093.00
2023-01-15T06:53:20.290Z,97090.38
2023-01-15T06:58:23.542Z,97080.09
2023-01-15T07:03:27.752Z,97077.81
2023-01-15T07:08:30.483Z,97089.19
2023-01-15T07:13:35.088Z,97097.09
2023-01-15T07:18:39.322Z,97107.72
2023-01-15T07:23:42.067Z,97117.44
2023-01-15T07:28:45.646Z,97107.13
2023-01-15T07:33:49.812Z,97113.38
2023-01-15T07:38:53.029Z,97122.09
2023-01-15T07:44:13.363Z,97126.06
2023-01-15T07:49:35.544Z,97133.47
2023-01-15T07:54:39.298Z,97135.59
2023-01-15T07:59:42.288Z,97142.91
2023-01-15T08:04:47.888Z,97142.78
2023-01-15T08:09:50.665Z,97142.66
2023-01-15T08:15:11.989Z,97157.97
2023-01-15T08:20:18.289Z,97156.91
2023-01-15T08:25:22.703Z,97167.19
2023-01-15T08:30:26.945Z,97176.53
2023-01-15T08:35:31.172Z,97168.13
2023-01-15T08:40:36.164Z,97164.03
2023-01-15T08:45:38.909Z,97161.16
2023-01-15T08:50:42.983Z,97163.31
2023-01-15T08:55:45.924Z,97171.22
2023-01-15T09:00:48.986Z,97169.16
2023-01-15T09:05:53.177Z,97168.91
2023-01-15T09:10:59.886Z,97155.72
2023-01-15T09:16:03.858Z,97156.19
2023-01-15T09:21:12.953Z,97181.50
2023-01-15T09:26:29.728Z,97171.06
2023-01-15T09:31:32.905Z,97179.19
2023-01-15T09:36:39.100Z,97180.63
2023-01-15T09:42:08.300Z,97188.13
2023-01-15T09:47:16.711Z,97193.19
2023-01-15T09:52:31.786Z,97188.75
2023-01-15T09:57:35.637Z,97196.06
2023-01-15T10:02:44.640Z,97206.38
2023-01-15T10:07:57.045Z,97203.16
2023-01-15T10:13:07.679Z,97207.00
2023-01-15T10:18:16.643Z,97184.69
2023-01-15T10:23:35.745Z,97191.75
2023-01-15T10:28:57.838Z,97193.06
2023-01-15T10:34:17.627Z,97206.91
2023-01-15T10:39:30.274Z,97214.34
2023-01-15T10:44:45.521Z,97213.53
2023-01-15T10:49:50.463Z,97210.84
2023-01-15T10:54:59.035Z,97212.78
2023-01-15T11:00:02.710Z,97207.28
2023-01-15T11:05:07.813Z,97211.13
2023-01-15T11:10:15.308Z,97223.28
2023-01-15T11:15:41.926Z,97232.16
2023-01-15T11:20:47.376Z,97236.47
2023-01-15T11:25:54.732Z,97237.50
2023-01-15T11:31:04.300Z,97232.97
2023-01-15T11:36:19.758Z,97220.34
2023-01-15T11:41:49.420Z,97225.13
2023-01-15T11:47:13.810Z,97197.59
2023-01-15T11:52:21.763Z,97202.47
2023-01-15T11:57:29.691Z,97199.09
2023-01-15T12:02:37.183Z,97209.00
2023-01-15T12:07:41.062Z,97208.63
2023-01-15T12:12:57.736Z,97213.16
2023-01-15T12:18:34.509Z,97221.88
2023-01-15T12:24:06.613Z,97227.47
2023-01-15T12:29:15.755Z,97208.09
2023-01-15T12:34:24.828Z,97187.88
2023-01-15T12:39:33.217Z,97197.94
2023-01-15T12:45:03.946Z,97206.09
2023-01-15T12:50:21.422Z,97190.19
2023-01-15T12:55:29.810Z,97183.50
2023-01-15T13:00:38.043Z,97165.88
2023-01-15T13:05:48.351Z,97162.94
2023-01-15T13:10:52.997Z,97160.88
2023-01-15T13:16:07.598Z,97188.19
2023-01-15T13:21:14.325Z,97183.84
2023-01-15T13:26:45.309Z,97187.75
2023-01-15T13:31:58.866Z,97195.00
2023-01-15T13:37:09.877Z,97194.31
2023-01-15T13:42:34.493Z,97204.63
2023-01-15T13:47:43.369Z,97204.91
2023-01-15T13:52:47.347Z,97222.03
2023-01-15T13:57:50.884Z,97222.19
2023-01-15T14:02:57.251Z,97224.94
2023-01-15T14:08:03.167Z,97225.22
2023-01-15T14:13:37.533Z,97233.63
2023-01-15T14:19:00.183Z,97226.19
2023-01-15T14:24:38.216Z,97250.84
2023-01-15T14:30:10.512Z,97255.91
2023-01-15T14:35:20.837Z,97251.31
2023-01-15T14:40:28.463Z,97262.72
2023-01-15T14:45:37.906Z,97270.19
2023-01-15T14:50:43.931Z,97273.28
2023-01-15T14:55:50.068Z,97292.34
2023-01-15T15:00:56.081Z,97281.91
2023-01-15T15:06:00.865Z,97294.44
2023-01-15T15:11:28.712Z,97302.88
2023-01-15T15:16:32.632Z,97295.44
2023-01-15T15:21:43.186Z,97302.06
2023-01-15T15:26:46.025Z,97323.28
2023-01-15T15:31:56.047Z,97307.25
2023-01-15T15:37:03.478Z,97309.69
2023-01-15T15:42:33.788Z,97307.44
2023-01-15T15:47:56.985Z,97302.91
2023-01-15T15:53:04.513Z,97302.47
2023-01-15T15:58:10.189Z,97309.84
2023-01-15T16:03:23.067Z,97320.53
2023-01-15T16:08:33.067Z,97295.31
2023-01-15T16:13:41.065Z,97306.16
2023-01-15T16:18:46.966Z,97305.56
2023-01-15T16:24:02.594Z,97309.06
2023-01-15T16:29:08.245Z,97311.25
2023-01-15T16:34:19.113Z,97330.00
2023-01-15T16:39:26.434Z,97315.81
2023-01-15T16:44:44.211Z,97310.19
2023-01-15T16:49:47.136Z,97317.53
2023-01-15T16:54:52.219Z,97314.31
2023-01-15T16:59:58.748Z,97317.53
2023-01-15T17:05:01.845Z,97300.16
2023-01-15T17:10:18.982Z,97303.88
2023-01-15T17:15:46.439Z,97302.91
2023-01-15T17:20:49.372Z,97308.19
2023-01-15T17:25:54.164Z,97309.16
2023-01-15T17:31:02.443Z,97319.00
2023-01-15T17:36:06.067Z,97299.09
2023-01-15T17:41:13.281Z,97315.47
2023-01-15T17:46:17.466Z,97304.75
2023-01-15T17:51:21.004Z,97299.47
2023-01-15T17:56:57.997Z,97288.91
2023-01-15T18:02:19.285Z,97294.06
2023-01-15T18:07:24.530Z,97315.09
2023-01-15T18:12:28.754Z,97310.94
2023-01-15T18:17:31.789Z,97309.88
2023-01-15T18:22:34.636Z,97314.25
2023-01-15T18:27:43.189Z,97308.34
2023-01-15T18:32:47.013Z,97307.91
2023-01-15T18:37:53.519Z,97307.19
2023-01-15T18:43:15.917Z,97305.00
2023-01-15T18:48:19.735Z,97296.13
2023-01-15T18:53:22.581Z,97289.88
2023-01-15T18:58:26.992Z,97273.44
2023-01-15T19:03:29.818Z,97270.34
2023-01-15T19:08:33.008Z,97266.63
2023-01-15T19:13:41.870Z,97263.47
2023-01-15T19:18:53.340Z,97256.06
2023-01-15T19:23:56.099Z,97272.72
2023-01-15T19:29:00.627Z,97254.41
2023-01-15T19:34:32.618Z,97262.22
2023-01-15T19:39:36.442Z,97269.22
2023-01-15T19:44:58.276Z,97248.91
2023-01-15T19:50:18.980Z,97237.09
2023-01-15T19:55:23.930Z,97230.19
2023-01-15T20:00:28.862Z,97241.69
2023-01-15T20:05:33.494Z,97222.84
2023-01-15T20:10:41.338Z,97224.53
2023-01-15T20:15:47.161Z,97206.78
2023-01-15T20:20:50.347Z,97196.75
2023-01-15T20:25:53.732Z,97196.50
2023-01-15T20:30:58.013Z,97190.00
2023-01-15T20:36:03.109Z,97199.50
2023-01-15T20:41:27.192Z,97188.94
2023-01-15T20:46:32.146Z,97182.34
2023-01-15T20:51:35.012Z,97185.56
2023-01-15T20:56:37.783Z,97168.50
2023-01-15T21:01:42.027Z,97173.41
2023-01-15T21:06:45.092Z,97153.78
2023-01-15T21:11:48.084Z,97160.47
2023-01-15T21:16:53.156Z,97146.06
2023-01-15T21:21:56.031Z,97133.16
2023-01-15T21:26:59.749Z,97108.19
2023-01-15T21:32:04.022Z,97097.47
2023-01-15T21:37:07.147Z,97101.94
2023-01-15T21:42:33.978Z,97086.94
2023-01-15T21:47:38.365Z,97066.75
2023-01-15T21:52:46.068Z,97062.03
2023-01-15T21:57:49.089Z,97058.75
2023-01-15T22:02:54.101Z,97050.84
2023-01-15T22:07:56.864Z,97050.00
2023-01-15T22:12:59.646Z,97043.19
2023-01-15T22:18:03.950Z,97039.59
2023-01-15T22:23:06.770Z,97026.41
2023-01-15T22:28:09.577Z,97017.66
2023-01-15T22:33:13.764Z,97018.34
2023-01-15T22:38:16.591Z,97014.19
2023-01-15T22:43:19.472Z,97008.91
2023-01-15T22:48:23.604Z,97001.31
2023-01-15T22:53:26.387Z,96988.13
2023-01-15T22:58:29.135Z,96981.06
2023-01-15T23:03:36.672Z,96970.25
2023-01-15T23:08:40.146Z,96953.19
2023-01-15T23:13:44.324Z,96950.44
2023-01-15T23:18:49.245Z,96930.41
2023-01-15T23:23:55.065Z,96924.06
2023-01-15T23:28:58.096Z,96912.41
2023-01-15T23:34:02.323Z,96896.44
2023-01-15T23:39:05.276Z,96884.22
2023-01-15T23:44:32.123Z,96876.31
2023-01-15T23:49:36.610Z,96872.56
2023-01-15T23:54:39.418Z,96864.25
2023-01-15T23:59:43.844Z,96855.66
